createdAt,value
2022-08-19T00:02:02.207Z,2.40
2022-08-19T00:05:32.973Z,3.38
2022-08-19T00:08:58.785Z,2.67
2022-08-19T00:12:22.371Z,2.55
2022-08-19T00:15:46.198Z,2.95
2022-08-19T00:19:11.693Z,2.78
2022-08-19T00:22:35.859Z,2.85
2022-08-19T00:26:02.129Z,2.50
2022-08-19T00:29:30.460Z,2.60
2022-08-19T00:32:54.739Z,2.22
2022-08-19T00:36:30.575Z,2.95
2022-08-19T00:39:53.651Z,2.30
2022-08-19T00:43:22.391Z,2.50
2022-08-19T00:46:57.773Z,2.72
2022-08-19T00:50:22.819Z,3.05
2022-08-19T00:53:47.163Z,3.22
2022-08-19T00:57:16.299Z,4.32
2022-08-19T01:00:39.803Z,3.63
2022-08-19T01:04:02.398Z,4.75
2022-08-19T01:07:25.292Z,4.60
2022-08-19T01:10:52.030Z,4.22
2022-08-19T01:14:15.680Z,4.97
2022-08-19T01:17:40.983Z,5.03
2022-08-19T01:21:09.007Z,5.65
2022-08-19T01:24:32.168Z,4.63
2022-08-19T01:27:56.172Z,4.50
2022-08-19T01:31:28.637Z,4.67
2022-08-19T01:34:53.348Z,4.82
2022-08-19T01:38:36.306Z,4.50
2022-08-19T01:42:10.372Z,4.78
2022-08-19T01:45:36.236Z,6.50
2022-08-19T01:48:58.809Z,5.70
2022-08-19T01:52:20.974Z,6.28
2022-08-19T01:55:46.677Z,6.18
2022-08-19T01:59:19.852Z,6.03
2022-08-19T02:02:44.204Z,5.47
2022-08-19T02:06:11.304Z,6.88
2022-08-19T02:09:35.283Z,6.10
2022-08-19T02:12:57.551Z,6.68
2022-08-19T02:16:21.898Z,5.78
2022-08-19T02:19:45.303Z,6.57
2022-08-19T02:23:13.350Z,5.80
2022-08-19T02:26:36.205Z,5.93
2022-08-19T02:29:59.364Z,5.60
2022-08-19T02:33:25.676Z,6.18
2022-08-19T02:36:52.451Z,6.03
2022-08-19T02:40:16.891Z,5.85
2022-08-19T02:43:44.448Z,4.88
2022-08-19T02:47:24.487Z,4.82
2022-08-19T02:50:51.826Z,6.10
2022-08-19T02:54:17.880Z,6.63
2022-08-19T02:57:43.714Z,6.30
2022-08-19T03:01:07.654Z,5.75
2022-08-19T03:04:31.337Z,5.32
2022-08-19T03:07:53.882Z,6.38
2022-08-19T03:11:28.561Z,5.70
2022-08-19T03:14:52.125Z,5.85
2022-08-19T03:18:16.278Z,4.88
2022-08-19T03:21:41.281Z,6.07
2022-08-19T03:25:04.967Z,5.72
2022-08-19T03:28:28.573Z,6.10
2022-08-19T03:31:53.340Z,6.18
2022-08-19T03:35:17.178Z,5.95
2022-08-19T03:38:45.562Z,6.15
2022-08-19T03:42:32.546Z,5.40
2022-08-19T03:46:08.591Z,5.75
2022-08-19T03:49:36.757Z,5.45
2022-08-19T03:53:00.816Z,5.20
2022-08-19T03:56:24.096Z,5.38
2022-08-19T03:59:47.374Z,5.68
2022-08-19T04:03:10.425Z,5.03
2022-08-19T04:06:38.826Z,5.32
2022-08-19T04:10:02.197Z,4.40
2022-08-19T04:13:25.487Z,4.20
2022-08-19T04:16:50.253Z,5.72
2022-08-19T04:20:13.446Z,4.32
2022-08-19T04:23:45.610Z,4.57
2022-08-19T04:27:09.796Z,4.45
2022-08-19T04:30:38.731Z,4.85
2022-08-19T04:34:03.238Z,6.15
2022-08-19T04:37:27.442Z,8.40
2022-08-19T04:41:24.674Z,9.23
2022-08-19T04:44:47.424Z,6.30
2022-08-19T04:48:26.566Z,6.47
2022-08-19T04:51:51.669Z,6.47
2022-08-19T04:55:16.161Z,7.30
2022-08-19T04:58:43.894Z,5.90
2022-08-19T05:02:08.809Z,5.78
2022-08-19T05:05:32.637Z,5.93
2022-08-19T05:09:07.860Z,6.13
2022-08-19T05:12:34.322Z,5.25
2022-08-19T05:16:00.896Z,5.03
2022-08-19T05:19:41.438Z,4.47
2022-08-19T05:23:12.795Z,5.03
2022-08-19T05:26:48.699Z,4.97
2022-08-19T05:30:13.086Z,5.60
2022-08-19T05:33:35.581Z,6.47
2022-08-19T05:36:59.789Z,6.22
2022-08-19T05:40:21.945Z,7.00
2022-08-19T05:43:45.961Z,6.63
2022-08-19T05:47:10.133Z,6.55
2022-08-19T05:50:32.316Z,6.40
2022-08-19T05:53:54.662Z,6.65
2022-08-19T05:57:17.080Z,6.15
2022-08-19T06:00:41.527Z,5.88
2022-08-19T06:04:11.570Z,6.30
2022-08-19T06:11:15.246Z,6.85
2022-08-19T06:14:41.836Z,7.55
2022-08-19T06:18:06.463Z,7.60
2022-08-19T06:21:30.577Z,7.65
2022-08-19T06:24:55.748Z,7.88
2022-08-19T06:28:20.391Z,7.55
2022-08-19T06:31:53.370Z,7.65
2022-08-19T06:35:17.723Z,9.10
2022-08-19T06:38:40.728Z,9.07
2022-08-19T06:42:07.350Z,10.45
2022-08-19T06:45:35.353Z,10.35
2022-08-19T06:49:00.563Z,11.00
2022-08-19T06:52:25.666Z,10.75
2022-08-19T06:56:02.404Z,11.38
2022-08-19T06:59:34.859Z,11.00
2022-08-19T07:03:00.874Z,12.48
2022-08-19T07:06:43.497Z,11.80
2022-08-19T07:10:09.111Z,11.68
2022-08-19T07:13:38.953Z,10.90
2022-08-19T07:17:07.350Z,11.35
2022-08-19T07:20:39.780Z,9.88
2022-08-19T07:24:14.943Z,9.27
2022-08-19T07:27:46.421Z,9.07
2022-08-19T07:31:23.825Z,8.55
2022-08-19T07:34:47.843Z,10.18
2022-08-19T07:38:15.031Z,9.00
2022-08-19T07:41:41.027Z,9.05
2022-08-19T07:45:06.591Z,7.80
2022-08-19T07:48:30.983Z,5.40
2022-08-19T07:52:07.225Z,4.03
2022-08-19T07:55:41.602Z,4.05
2022-08-19T07:59:07.538Z,4.00
2022-08-19T08:02:31.509Z,4.38
2022-08-19T08:06:13.663Z,3.80
2022-08-19T08:09:39.966Z,4.00
2022-08-19T08:13:09.401Z,3.88
2022-08-19T08:16:39.507Z,3.85
2022-08-19T08:20:09.395Z,3.70
2022-08-19T08:23:32.712Z,3.35
2022-08-19T08:27:00.421Z,3.97
2022-08-19T08:30:25.590Z,4.07
2022-08-19T08:33:55.472Z,4.03
2022-08-19T08:37:24.368Z,4.85
2022-08-19T08:40:52.791Z,5.50
2022-08-19T08:44:37.709Z,7.30
2022-08-19T08:48:05.101Z,8.23
2022-08-19T08:56:07.383Z,9.00
2022-08-19T08:59:45.704Z,9.32
2022-08-19T09:03:25.676Z,8.03
2022-08-19T09:06:56.895Z,6.22
2022-08-19T09:11:05.429Z,5.88
2022-08-19T09:15:33.610Z,5.63
2022-08-19T09:19:40.108Z,5.70
2022-08-19T09:29:37.787Z,5.60
2022-08-19T09:37:26.254Z,4.57
2022-08-19T09:41:51.334Z,5.00
2022-08-19T09:45:25.969Z,5.25
2022-08-19T09:49:38.808Z,5.45
2022-08-19T09:57:40.477Z,6.38
2022-08-19T10:06:19.295Z,5.55
2022-08-19T10:10:08.554Z,6.05
2022-08-19T10:13:37.540Z,6.10
2022-08-19T10:17:20.072Z,6.38
2022-08-19T10:21:08.948Z,6.13
2022-08-19T10:24:43.268Z,6.05
2022-08-19T10:28:11.233Z,7.20
2022-08-19T10:32:01.115Z,6.45
2022-08-19T10:35:26.693Z,7.00
2022-08-19T10:38:56.688Z,7.25
2022-08-19T10:47:17.604Z,7.15
2022-08-19T10:51:22.540Z,8.07
2022-08-19T11:03:46.635Z,8.30
2022-08-19T11:07:14.126Z,7.40
2022-08-19T11:15:54.256Z,8.02
2022-08-19T11:23:51.587Z,7.70
2022-08-19T11:36:06.798Z,8.02
2022-08-19T11:48:38.835Z,5.28
2022-08-19T11:53:01.771Z,4.85
2022-08-19T11:56:58.247Z,4.63
2022-08-19T12:00:30.685Z,4.38
2022-08-19T12:05:12.838Z,4.35
2022-08-19T12:14:35.709Z,3.10
2022-08-19T12:18:54.644Z,3.08
2022-08-19T12:22:19.508Z,2.33
2022-08-19T12:30:11.554Z,2.00
2022-08-19T12:39:10.697Z,2.15
2022-08-19T12:48:33.936Z,1.75
2022-08-19T12:52:06.445Z,2.58
2022-08-19T12:55:41.136Z,2.25
2022-08-19T12:59:06.377Z,2.42
2022-08-19T13:02:30.049Z,2.90
2022-08-19T13:05:53.953Z,2.92
2022-08-19T13:09:18.077Z,3.50
2022-08-19T13:12:43.011Z,2.67
2022-08-19T13:16:08.888Z,2.40
2022-08-19T13:19:33.485Z,3.30
2022-08-19T13:22:59.186Z,2.72
2022-08-19T13:26:22.437Z,3.13
2022-08-19T13:30:04.027Z,3.65
2022-08-19T13:33:28.650Z,3.47
2022-08-19T13:36:56.705Z,4.65
2022-08-19T13:40:25.547Z,3.15
2022-08-19T13:43:48.095Z,2.85
2022-08-19T13:47:13.759Z,4.25
2022-08-19T13:50:42.594Z,3.38
2022-08-19T13:54:05.294Z,3.28
2022-08-19T13:57:28.124Z,3.20
2022-08-19T14:00:52.059Z,3.00
2022-08-19T14:04:17.541Z,3.22
2022-08-19T14:07:40.702Z,2.40
2022-08-19T14:11:06.425Z,3.20
2022-08-19T14:14:30.364Z,3.58
2022-08-19T14:17:54.190Z,3.67
2022-08-19T14:21:27.578Z,2.53
2022-08-19T14:24:54.580Z,3.00
2022-08-19T14:28:18.272Z,2.95
2022-08-19T14:31:47.981Z,2.67
2022-08-19T14:35:12.071Z,2.95
2022-08-19T14:38:38.632Z,2.60
2022-08-19T14:42:01.209Z,2.78
2022-08-19T14:45:23.788Z,3.05
2022-08-19T14:48:48.122Z,2.13
2022-08-19T14:52:14.591Z,1.85
2022-08-19T14:55:38.417Z,2.15
2022-08-19T14:59:02.313Z,1.90
2022-08-19T15:02:33.553Z,2.42
2022-08-19T15:05:59.094Z,2.33
2022-08-19T15:09:22.285Z,2.30
2022-08-19T15:12:51.593Z,2.30
2022-08-19T15:16:18.643Z,2.30
2022-08-19T15:19:41.884Z,1.90
2022-08-19T15:23:08.261Z,1.98
2022-08-19T15:26:33.713Z,2.03
2022-08-19T15:30:01.562Z,1.80
2022-08-19T15:33:25.010Z,1.60
2022-08-19T15:36:59.885Z,1.50
2022-08-19T15:40:24.897Z,1.60
2022-08-19T15:43:50.814Z,0.93
2022-08-19T15:47:14.297Z,1.08
2022-08-19T15:50:47.996Z,0.98
2022-08-19T15:54:13.242Z,0.90
2022-08-19T15:58:05.618Z,1.35
2022-08-19T16:01:54.556Z,1.00
2022-08-19T16:09:42.118Z,1.23
2022-08-19T16:14:04.781Z,1.00
2022-08-19T16:17:33.667Z,0.95
2022-08-19T16:27:26.906Z,0.95
2022-08-19T16:30:51.119Z,0.90
2022-08-19T16:34:14.365Z,0.90
2022-08-19T16:37:36.356Z,1.38
2022-08-19T16:41:01.178Z,1.63
2022-08-19T16:44:26.531Z,1.42
2022-08-19T16:47:53.703Z,1.60
2022-08-19T16:51:19.677Z,1.80
2022-08-19T16:54:45.353Z,2.20
2022-08-19T16:58:07.724Z,2.03
2022-08-19T17:01:35.455Z,2.40
2022-08-19T17:05:03.798Z,1.98
2022-08-19T17:08:30.479Z,2.53
2022-08-19T17:11:53.809Z,2.70
2022-08-19T17:15:17.052Z,2.58
2022-08-19T17:18:43.270Z,2.40
2022-08-19T17:22:11.386Z,2.38
2022-08-19T17:25:35.762Z,2.67
2022-08-19T17:28:59.547Z,2.58
2022-08-19T17:32:24.879Z,3.00
2022-08-19T17:35:51.890Z,3.13
2022-08-19T17:39:14.811Z,3.00
2022-08-19T17:42:38.526Z,2.47
2022-08-19T17:46:05.626Z,2.40
2022-08-19T17:49:28.792Z,2.28
2022-08-19T17:52:54.031Z,1.98
2022-08-19T17:56:20.777Z,2.22
2022-08-19T17:59:49.098Z,2.25
2022-08-19T18:03:14.100Z,2.20
2022-08-19T18:06:41.900Z,2.38
2022-08-19T18:10:16.209Z,2.45
2022-08-19T18:13:39.052Z,2.38
2022-08-19T18:17:09.649Z,3.58
2022-08-19T18:20:32.628Z,4.13
2022-08-19T18:23:55.295Z,3.80
2022-08-19T18:27:25.836Z,3.70
2022-08-19T18:31:09.049Z,4.30
2022-08-19T18:34:38.181Z,5.70
2022-08-19T18:38:22.515Z,4.60
2022-08-19T18:42:03.116Z,4.57
2022-08-19T18:45:44.040Z,4.90
2022-08-19T18:49:08.582Z,5.30
2022-08-19T18:52:47.957Z,4.65
2022-08-19T18:56:14.821Z,4.22
2022-08-19T19:00:01.944Z,3.40
2022-08-19T19:03:29.940Z,3.20
2022-08-19T19:06:52.569Z,3.20
2022-08-19T19:10:14.677Z,3.42
2022-08-19T19:14:23.159Z,3.25
2022-08-19T19:26:01.048Z,3.83
2022-08-19T19:29:25.683Z,4.05
2022-08-19T19:33:20.217Z,4.15
2022-08-19T19:44:31.034Z,3.38
2022-08-19T19:47:55.645Z,3.75
2022-08-19T19:51:20.412Z,3.75
2022-08-19T19:55:25.827Z,3.20
2022-08-19T19:58:55.941Z,2.95
2022-08-19T20:02:25.688Z,2.53
2022-08-19T20:05:55.241Z,2.67
2022-08-19T20:09:19.840Z,2.28
2022-08-19T20:12:42.418Z,2.55
2022-08-19T20:16:04.511Z,2.85
2022-08-19T20:19:34.755Z,2.90
2022-08-19T20:23:06.727Z,2.55
2022-08-19T20:27:11.569Z,2.65
2022-08-19T20:31:01.441Z,2.60
2022-08-19T20:34:36.502Z,1.98
2022-08-19T20:41:53.128Z,2.28
2022-08-19T20:45:33.558Z,2.20
2022-08-19T20:49:00.050Z,2.25
2022-08-19T20:52:25.623Z,2.50
2022-08-19T20:55:53.262Z,2.60
2022-08-19T20:59:34.345Z,2.80
2022-08-19T21:03:00.346Z,2.60
2022-08-19T21:06:25.457Z,2.47
2022-08-19T21:10:08.048Z,2.17
2022-08-19T21:13:53.939Z,1.90
2022-08-19T21:17:20.536Z,2.40
2022-08-19T21:20:43.719Z,1.92
2022-08-19T21:24:11.843Z,2.10
2022-08-19T21:27:41.257Z,1.92
2022-08-19T21:31:05.863Z,1.98
2022-08-19T21:34:28.724Z,1.90
2022-08-19T21:38:00.604Z,2.25
2022-08-19T21:41:29.509Z,2.03
2022-08-19T21:44:57.412Z,2.15
2022-08-19T21:48:20.492Z,1.52
2022-08-19T21:51:49.275Z,1.88
2022-08-19T21:55:12.580Z,2.10
2022-08-19T21:58:46.502Z,1.75
2022-08-19T22:02:19.515Z,1.90
2022-08-19T22:05:50.442Z,1.85
2022-08-19T22:09:14.783Z,1.50
2022-08-19T22:12:51.553Z,1.73
2022-08-19T22:16:16.004Z,1.70
2022-08-19T22:19:43.774Z,2.08
2022-08-19T22:23:08.421Z,1.90
2022-08-19T22:26:32.601Z,1.73
2022-08-19T22:30:26.384Z,1.48
2022-08-19T22:33:55.765Z,1.52
2022-08-19T22:37:19.237Z,2.22
2022-08-19T22:44:58.551Z,2.10
2022-08-19T22:48:26.935Z,1.80
2022-08-19T22:52:07.866Z,2.03
2022-08-19T22:55:45.725Z,1.95
2022-08-19T22:59:21.737Z,1.70
2022-08-19T23:02:52.591Z,1.77
2022-08-19T23:06:42.373Z,1.70
2022-08-19T23:10:43.501Z,1.83
2022-08-19T23:14:12.835Z,1.70
2022-08-19T23:17:42.817Z,1.60
2022-08-19T23:21:11.715Z,2.00
2022-08-19T23:24:48.770Z,2.17
2022-08-19T23:28:39.358Z,1.65
2022-08-19T23:36:13.771Z,1.90
2022-08-19T23:39:37.294Z,2.00
2022-08-19T23:43:01.222Z,2.25
2022-08-19T23:46:28.264Z,2.53
2022-08-19T23:49:51.380Z,3.30
2022-08-19T23:53:14.573Z,2.47
2022-08-19T23:56:37.768Z,2.58
